sensor_id;sensor_type;location;lat;lon;timestamp;P1;durP1;ratioP1;P2;durP2;ratioP2
66626;SDS011;53498;50.422;14.912;2022-12-15T00:02:19;38.45;;;17.55;;
66626;SDS011;53498;50.422;14.912;2022-12-15T00:05:04;39.65;;;18.48;;
66626;SDS011;53498;50.422;14.912;2022-12-15T00:07:48;38.83;;;18.83;;
66626;SDS011;53498;50.422;14.912;2022-12-15T00:10:32;31.90;;;17.95;;
66626;SDS011;53498;50.422;14.912;2022-12-15T00:16:01;32.80;;;15.35;;
66626;SDS011;53498;50.422;14.912;2022-12-15T00:18:45;36.63;;;19.07;;
66626;SDS011;53498;50.422;14.912;2022-12-15T00:21:30;37.60;;;16.80;;
66626;SDS011;53498;50.422;14.912;2022-12-15T00:24:14;36.33;;;16.95;;
66626;SDS011;53498;50.422;14.912;2022-12-15T00:26:58;36.28;;;16.23;;
66626;SDS011;53498;50.422;14.912;2022-12-15T00:29:42;37.33;;;17.90;;
66626;SDS011;53498;50.422;14.912;2022-12-15T00:32:26;40.80;;;18.48;;
66626;SDS011;53498;50.422;14.912;2022-12-15T00:35:10;36.15;;;16.83;;
66626;SDS011;53498;50.422;14.912;2022-12-15T00:37:55;43.22;;;17.88;;
66626;SDS011;53498;50.422;14.912;2022-12-15T00:40:38;33.55;;;15.68;;
66626;SDS011;53498;50.422;14.912;2022-12-15T00:43:04;36.67;;;18.67;;
66626;SDS011;53498;50.422;14.912;2022-12-15T00:45:30;39.03;;;18.60;;
66626;SDS011;53498;50.422;14.912;2022-12-15T00:48:14;39.35;;;17.80;;
66626;SDS011;53498;50.422;14.912;2022-12-15T00:50:41;33.95;;;17.83;;
66626;SDS011;53498;50.422;14.912;2022-12-15T00:53:20;31.50;;;16.98;;
66626;SDS011;53498;50.422;14.912;2022-12-15T00:56:05;37.33;;;16.40;;
66626;SDS011;53498;50.422;14.912;2022-12-15T00:58:50;35.45;;;16.38;;
66626;SDS011;53498;50.422;14.912;2022-12-15T01:01:35;36.45;;;17.65;;
66626;SDS011;53498;50.422;14.912;2022-12-15T01:04:19;37.13;;;17.35;;
66626;SDS011;53498;50.422;14.912;2022-12-15T01:07:03;37.95;;;16.25;;
66626;SDS011;53498;50.422;14.912;2022-12-15T01:09:47;37.47;;;18.20;;
66626;SDS011;53498;50.422;14.912;2022-12-15T01:12:31;37.40;;;19.08;;
66626;SDS011;53498;50.422;14.912;2022-12-15T01:15:16;33.55;;;16.20;;
66626;SDS011;53498;50.422;14.912;2022-12-15T01:18:00;40.50;;;18.33;;
66626;SDS011;53498;50.422;14.912;2022-12-15T01:20:44;39.07;;;17.37;;
66626;SDS011;53498;50.422;14.912;2022-12-15T01:23:09;39.72;;;18.60;;
66626;SDS011;53498;50.422;14.912;2022-12-15T01:25:36;41.03;;;19.05;;
66626;SDS011;53498;50.422;14.912;2022-12-15T01:28:03;43.15;;;19.98;;
66626;SDS011;53498;50.422;14.912;2022-12-15T01:30:29;41.03;;;18.83;;
66626;SDS011;53498;50.422;14.912;2022-12-15T01:32:54;37.20;;;19.48;;
66626;SDS011;53498;50.422;14.912;2022-12-15T01:35:20;44.17;;;19.02;;
66626;SDS011;53498;50.422;14.912;2022-12-15T01:37:46;41.28;;;18.92;;
66626;SDS011;53498;50.422;14.912;2022-12-15T01:40:13;40.28;;;19.02;;
66626;SDS011;53498;50.422;14.912;2022-12-15T01:42:58;40.38;;;18.70;;
66626;SDS011;53498;50.422;14.912;2022-12-15T01:47:53;45.67;;;17.75;;
66626;SDS011;53498;50.422;14.912;2022-12-15T01:50:23;41.95;;;18.23;;
66626;SDS011;53498;50.422;14.912;2022-12-15T01:52:50;47.08;;;19.45;;
66626;SDS011;53498;50.422;14.912;2022-12-15T01:55:18;42.60;;;18.83;;
66626;SDS011;53498;50.422;14.912;2022-12-15T01:57:46;41.25;;;20.15;;
66626;SDS011;53498;50.422;14.912;2022-12-15T02:00:14;43.95;;;20.33;;
66626;SDS011;53498;50.422;14.912;2022-12-15T02:02:40;36.17;;;17.08;;
66626;SDS011;53498;50.422;14.912;2022-12-15T02:05:06;40.60;;;18.98;;
66626;SDS011;53498;50.422;14.912;2022-12-15T02:07:32;41.25;;;17.95;;
66626;SDS011;53498;50.422;14.912;2022-12-15T02:09:59;37.10;;;17.25;;
66626;SDS011;53498;50.422;14.912;2022-12-15T02:12:38;43.63;;;18.30;;
66626;SDS011;53498;50.422;14.912;2022-12-15T02:15:18;41.55;;;17.83;;
66626;SDS011;53498;50.422;14.912;2022-12-15T02:26:44;40.38;;;17.90;;
66626;SDS011;53498;50.422;14.912;2022-12-15T02:32:42;37.55;;;18.17;;
66626;SDS011;53498;50.422;14.912;2022-12-15T02:35:09;41.17;;;18.20;;
66626;SDS011;53498;50.422;14.912;2022-12-15T02:37:41;41.13;;;17.58;;
66626;SDS011;53498;50.422;14.912;2022-12-15T02:40:09;42.72;;;17.45;;
66626;SDS011;53498;50.422;14.912;2022-12-15T02:42:36;36.00;;;17.35;;
66626;SDS011;53498;50.422;14.912;2022-12-15T02:45:11;35.90;;;16.38;;
66626;SDS011;53498;50.422;14.912;2022-12-15T02:47:42;40.65;;;16.50;;
66626;SDS011;53498;50.422;14.912;2022-12-15T03:01:33;38.03;;;18.63;;
66626;SDS011;53498;50.422;14.912;2022-12-15T03:04:05;40.67;;;17.63;;
66626;SDS011;53498;50.422;14.912;2022-12-15T03:06:33;39.10;;;17.45;;
66626;SDS011;53498;50.422;14.912;2022-12-15T03:08:59;44.50;;;19.00;;
66626;SDS011;53498;50.422;14.912;2022-12-15T03:11:24;40.00;;;17.52;;
66626;SDS011;53498;50.422;14.912;2022-12-15T03:13:51;39.30;;;17.05;;
66626;SDS011;53498;50.422;14.912;2022-12-15T03:16:17;43.00;;;17.95;;
66626;SDS011;53498;50.422;14.912;2022-12-15T03:18:43;38.60;;;17.77;;
66626;SDS011;53498;50.422;14.912;2022-12-15T03:21:08;41.63;;;17.08;;
66626;SDS011;53498;50.422;14.912;2022-12-15T03:23:37;42.70;;;17.38;;
66626;SDS011;53498;50.422;14.912;2022-12-15T03:26:03;36.50;;;19.63;;
66626;SDS011;53498;50.422;14.912;2022-12-15T03:28:29;43.08;;;19.27;;
66626;SDS011;53498;50.422;14.912;2022-12-15T03:30:54;45.25;;;19.52;;
66626;SDS011;53498;50.422;14.912;2022-12-15T03:33:21;44.20;;;19.23;;
66626;SDS011;53498;50.422;14.912;2022-12-15T03:35:46;41.30;;;17.42;;
66626;SDS011;53498;50.422;14.912;2022-12-15T03:38:12;51.88;;;20.27;;
66626;SDS011;53498;50.422;14.912;2022-12-15T03:40:41;38.70;;;18.30;;
66626;SDS011;53498;50.422;14.912;2022-12-15T03:43:07;43.65;;;19.48;;
66626;SDS011;53498;50.422;14.912;2022-12-15T03:45:32;49.88;;;20.33;;
66626;SDS011;53498;50.422;14.912;2022-12-15T03:47:58;45.67;;;22.42;;
66626;SDS011;53498;50.422;14.912;2022-12-15T03:50:25;50.45;;;21.55;;
66626;SDS011;53498;50.422;14.912;2022-12-15T03:52:53;51.15;;;21.67;;
66626;SDS011;53498;50.422;14.912;2022-12-15T03:55:20;53.45;;;22.42;;
66626;SDS011;53498;50.422;14.912;2022-12-15T03:57:47;49.30;;;24.35;;
66626;SDS011;53498;50.422;14.912;2022-12-15T04:00:13;45.65;;;21.27;;
66626;SDS011;53498;50.422;14.912;2022-12-15T04:02:40;52.35;;;22.77;;
66626;SDS011;53498;50.422;14.912;2022-12-15T04:05:06;48.13;;;21.05;;
66626;SDS011;53498;50.422;14.912;2022-12-15T04:07:33;51.92;;;23.13;;
66626;SDS011;53498;50.422;14.912;2022-12-15T04:09:58;44.22;;;21.58;;
66626;SDS011;53498;50.422;14.912;2022-12-15T04:12:24;49.47;;;22.00;;
66626;SDS011;53498;50.422;14.912;2022-12-15T04:14:49;49.58;;;21.95;;
66626;SDS011;53498;50.422;14.912;2022-12-15T04:17:15;46.58;;;22.20;;
66626;SDS011;53498;50.422;14.912;2022-12-15T04:19:40;49.95;;;21.67;;
66626;SDS011;53498;50.422;14.912;2022-12-15T04:22:25;49.13;;;21.23;;
66626;SDS011;53498;50.422;14.912;2022-12-15T04:24:50;47.83;;;21.73;;
66626;SDS011;53498;50.422;14.912;2022-12-15T04:27:35;45.88;;;22.45;;
66626;SDS011;53498;50.422;14.912;2022-12-15T04:30:18;41.72;;;20.27;;
66626;SDS011;53498;50.422;14.912;2022-12-15T04:33:03;43.53;;;20.63;;
66626;SDS011;53498;50.422;14.912;2022-12-15T04:35:48;44.60;;;20.67;;
66626;SDS011;53498;50.422;14.912;2022-12-15T04:38:33;40.13;;;18.75;;
66626;SDS011;53498;50.422;14.912;2022-12-15T04:41:18;50.10;;;20.85;;
66626;SDS011;53498;50.422;14.912;2022-12-15T04:44:04;48.88;;;21.55;;
66626;SDS011;53498;50.422;14.912;2022-12-15T04:46:48;44.85;;;19.75;;
66626;SDS011;53498;50.422;14.912;2022-12-15T04:49:33;45.75;;;20.52;;
66626;SDS011;53498;50.422;14.912;2022-12-15T04:52:16;49.17;;;20.27;;
66626;SDS011;53498;50.422;14.912;2022-12-15T04:55:01;47.90;;;22.27;;
66626;SDS011;53498;50.422;14.912;2022-12-15T04:57:44;42.38;;;20.83;;
66626;SDS011;53498;50.422;14.912;2022-12-15T05:00:29;46.45;;;20.75;;
66626;SDS011;53498;50.422;14.912;2022-12-15T05:03:12;47.30;;;21.63;;
66626;SDS011;53498;50.422;14.912;2022-12-15T05:05:57;45.33;;;20.15;;
66626;SDS011;53498;50.422;14.912;2022-12-15T05:08:41;53.97;;;20.10;;
66626;SDS011;53498;50.422;14.912;2022-12-15T05:11:25;42.28;;;20.58;;
66626;SDS011;53498;50.422;14.912;2022-12-15T05:14:09;48.40;;;21.35;;
66626;SDS011;53498;50.422;14.912;2022-12-15T05:16:54;47.67;;;21.38;;
66626;SDS011;53498;50.422;14.912;2022-12-15T05:19:38;48.72;;;20.90;;
66626;SDS011;53498;50.422;14.912;2022-12-15T05:22:22;58.22;;;23.70;;
66626;SDS011;53498;50.422;14.912;2022-12-15T05:25:07;47.15;;;20.52;;
66626;SDS011;53498;50.422;14.912;2022-12-15T05:30:36;46.80;;;20.80;;
66626;SDS011;53498;50.422;14.912;2022-12-15T05:33:20;44.40;;;21.42;;
66626;SDS011;53498;50.422;14.912;2022-12-15T05:35:46;43.85;;;22.83;;
66626;SDS011;53498;50.422;14.912;2022-12-15T05:38:11;55.17;;;23.60;;
66626;SDS011;53498;50.422;14.912;2022-12-15T05:40:37;45.00;;;20.80;;
66626;SDS011;53498;50.422;14.912;2022-12-15T05:43:03;50.83;;;23.00;;
66626;SDS011;53498;50.422;14.912;2022-12-15T05:45:28;56.05;;;23.45;;
66626;SDS011;53498;50.422;14.912;2022-12-15T05:47:54;50.25;;;20.98;;
66626;SDS011;53498;50.422;14.912;2022-12-15T05:50:20;49.85;;;21.00;;
66626;SDS011;53498;50.422;14.912;2022-12-15T05:52:47;50.42;;;23.63;;
66626;SDS011;53498;50.422;14.912;2022-12-15T05:55:16;50.05;;;21.67;;
66626;SDS011;53498;50.422;14.912;2022-12-15T05:57:43;47.85;;;21.42;;
66626;SDS011;53498;50.422;14.912;2022-12-15T06:00:14;51.35;;;22.77;;
66626;SDS011;53498;50.422;14.912;2022-12-15T06:02:40;47.47;;;21.60;;
66626;SDS011;53498;50.422;14.912;2022-12-15T06:05:06;50.42;;;22.98;;
66626;SDS011;53498;50.422;14.912;2022-12-15T06:07:32;50.17;;;22.13;;
66626;SDS011;53498;50.422;14.912;2022-12-15T06:09:58;44.17;;;22.30;;
66626;SDS011;53498;50.422;14.912;2022-12-15T06:12:23;50.78;;;22.85;;
66626;SDS011;53498;50.422;14.912;2022-12-15T06:14:49;53.67;;;21.50;;
66626;SDS011;53498;50.422;14.912;2022-12-15T06:17:14;46.40;;;19.75;;
66626;SDS011;53498;50.422;14.912;2022-12-15T06:19:40;53.53;;;22.65;;
66626;SDS011;53498;50.422;14.912;2022-12-15T06:22:05;48.28;;;22.77;;
66626;SDS011;53498;50.422;14.912;2022-12-15T06:24:31;51.28;;;23.38;;
66626;SDS011;53498;50.422;14.912;2022-12-15T06:26:56;52.47;;;23.35;;
66626;SDS011;53498;50.422;14.912;2022-12-15T06:29:22;49.75;;;20.40;;
66626;SDS011;53498;50.422;14.912;2022-12-15T06:31:47;46.67;;;20.55;;
66626;SDS011;53498;50.422;14.912;2022-12-15T06:34:13;46.38;;;21.65;;
66626;SDS011;53498;50.422;14.912;2022-12-15T06:36:44;55.08;;;21.77;;
66626;SDS011;53498;50.422;14.912;2022-12-15T06:39:11;45.53;;;21.90;;
66626;SDS011;53498;50.422;14.912;2022-12-15T06:41:38;51.13;;;23.40;;
66626;SDS011;53498;50.422;14.912;2022-12-15T06:44:04;52.78;;;21.50;;
66626;SDS011;53498;50.422;14.912;2022-12-15T06:46:37;51.15;;;22.85;;
66626;SDS011;53498;50.422;14.912;2022-12-15T06:49:02;48.95;;;19.67;;
66626;SDS011;53498;50.422;14.912;2022-12-15T06:51:29;53.17;;;20.88;;
66626;SDS011;53498;50.422;14.912;2022-12-15T06:53:54;48.53;;;21.40;;
66626;SDS011;53498;50.422;14.912;2022-12-15T06:56:24;53.13;;;23.35;;
66626;SDS011;53498;50.422;14.912;2022-12-15T06:58:55;52.38;;;22.90;;
66626;SDS011;53498;50.422;14.912;2022-12-15T07:01:23;46.92;;;23.08;;
66626;SDS011;53498;50.422;14.912;2022-12-15T07:03:49;53.60;;;23.00;;
66626;SDS011;53498;50.422;14.912;2022-12-15T07:06:16;51.92;;;23.73;;
66626;SDS011;53498;50.422;14.912;2022-12-15T07:08:42;54.78;;;25.23;;
66626;SDS011;53498;50.422;14.912;2022-12-15T07:11:10;47.88;;;22.45;;
66626;SDS011;53498;50.422;14.912;2022-12-15T07:13:37;50.85;;;23.63;;
66626;SDS011;53498;50.422;14.912;2022-12-15T07:16:04;57.75;;;25.35;;
66626;SDS011;53498;50.422;14.912;2022-12-15T07:18:31;58.25;;;26.98;;
66626;SDS011;53498;50.422;14.912;2022-12-15T07:21:00;58.30;;;24.27;;
66626;SDS011;53498;50.422;14.912;2022-12-15T07:23:28;63.92;;;24.95;;
66626;SDS011;53498;50.422;14.912;2022-12-15T07:25:54;52.25;;;23.80;;
66626;SDS011;53498;50.422;14.912;2022-12-15T07:28:20;52.53;;;24.52;;
66626;SDS011;53498;50.422;14.912;2022-12-15T07:30:48;55.38;;;21.95;;
66626;SDS011;53498;50.422;14.912;2022-12-15T07:33:13;51.03;;;23.63;;
66626;SDS011;53498;50.422;14.912;2022-12-15T07:35:40;59.33;;;25.70;;
66626;SDS011;53498;50.422;14.912;2022-12-15T07:38:06;53.60;;;23.60;;
66626;SDS011;53498;50.422;14.912;2022-12-15T07:40:33;53.80;;;21.95;;
66626;SDS011;53498;50.422;14.912;2022-12-15T07:42:58;56.55;;;24.50;;
66626;SDS011;53498;50.422;14.912;2022-12-15T07:45:24;55.00;;;22.48;;
66626;SDS011;53498;50.422;14.912;2022-12-15T07:47:50;58.78;;;23.23;;
66626;SDS011;53498;50.422;14.912;2022-12-15T07:50:16;59.35;;;22.70;;
66626;SDS011;53498;50.422;14.912;2022-12-15T07:52:42;47.38;;;24.13;;
66626;SDS011;53498;50.422;14.912;2022-12-15T07:55:08;50.40;;;22.90;;
66626;SDS011;53498;50.422;14.912;2022-12-15T07:57:34;54.47;;;23.95;;
66626;SDS011;53498;50.422;14.912;2022-12-15T07:59:59;53.92;;;21.48;;
66626;SDS011;53498;50.422;14.912;2022-12-15T08:02:25;48.90;;;24.60;;
66626;SDS011;53498;50.422;14.912;2022-12-15T08:04:51;59.75;;;24.88;;
66626;SDS011;53498;50.422;14.912;2022-12-15T08:07:16;56.13;;;24.15;;
66626;SDS011;53498;50.422;14.912;2022-12-15T08:09:42;54.47;;;23.98;;
66626;SDS011;53498;50.422;14.912;2022-12-15T08:12:07;64.97;;;26.15;;
66626;SDS011;53498;50.422;14.912;2022-12-15T08:14:33;54.33;;;24.30;;
66626;SDS011;53498;50.422;14.912;2022-12-15T08:16:59;64.60;;;24.02;;
66626;SDS011;53498;50.422;14.912;2022-12-15T08:19:25;47.42;;;23.02;;
66626;SDS011;53498;50.422;14.912;2022-12-15T08:21:50;61.10;;;24.90;;
66626;SDS011;53498;50.422;14.912;2022-12-15T08:24:16;63.08;;;27.38;;
66626;SDS011;53498;50.422;14.912;2022-12-15T08:26:43;69.90;;;28.80;;
66626;SDS011;53498;50.422;14.912;2022-12-15T08:29:10;61.60;;;26.10;;
66626;SDS011;53498;50.422;14.912;2022-12-15T08:31:37;62.40;;;25.55;;
66626;SDS011;53498;50.422;14.912;2022-12-15T08:34:04;57.15;;;25.33;;
66626;SDS011;53498;50.422;14.912;2022-12-15T08:36:31;52.90;;;25.83;;
66626;SDS011;53498;50.422;14.912;2022-12-15T08:38:58;59.65;;;25.42;;
66626;SDS011;53498;50.422;14.912;2022-12-15T08:41:26;57.15;;;26.48;;
66626;SDS011;53498;50.422;14.912;2022-12-15T08:43:54;64.57;;;26.67;;
66626;SDS011;53498;50.422;14.912;2022-12-15T08:46:21;58.85;;;25.00;;
66626;SDS011;53498;50.422;14.912;2022-12-15T08:48:49;66.40;;;28.35;;
66626;SDS011;53498;50.422;14.912;2022-12-15T08:51:14;65.30;;;28.17;;
66626;SDS011;53498;50.422;14.912;2022-12-15T08:53:41;64.93;;;27.55;;
66626;SDS011;53498;50.422;14.912;2022-12-15T08:56:07;60.45;;;26.45;;
66626;SDS011;53498;50.422;14.912;2022-12-15T08:58:34;64.25;;;27.25;;
66626;SDS011;53498;50.422;14.912;2022-12-15T09:01:01;73.60;;;30.42;;
66626;SDS011;53498;50.422;14.912;2022-12-15T09:03:32;69.07;;;27.40;;
66626;SDS011;53498;50.422;14.912;2022-12-15T09:06:02;64.47;;;27.88;;
66626;SDS011;53498;50.422;14.912;2022-12-15T09:08:32;71.45;;;31.60;;
66626;SDS011;53498;50.422;14.912;2022-12-15T09:10:59;70.63;;;30.77;;
66626;SDS011;53498;50.422;14.912;2022-12-15T09:13:26;63.20;;;29.45;;
66626;SDS011;53498;50.422;14.912;2022-12-15T09:16:11;57.20;;;27.90;;
66626;SDS011;53498;50.422;14.912;2022-12-15T09:18:43;64.70;;;27.23;;
66626;SDS011;53498;50.422;14.912;2022-12-15T09:21:11;59.17;;;27.08;;
66626;SDS011;53498;50.422;14.912;2022-12-15T09:23:37;67.70;;;29.20;;
66626;SDS011;53498;50.422;14.912;2022-12-15T09:26:07;64.53;;;28.20;;
66626;SDS011;53498;50.422;14.912;2022-12-15T09:28:35;61.70;;;28.00;;
66626;SDS011;53498;50.422;14.912;2022-12-15T09:31:06;63.22;;;28.75;;
66626;SDS011;53498;50.422;14.912;2022-12-15T09:33:34;68.50;;;30.98;;
66626;SDS011;53498;50.422;14.912;2022-12-15T09:35:59;65.13;;;27.50;;
66626;SDS011;53498;50.422;14.912;2022-12-15T09:38:25;66.80;;;27.42;;
66626;SDS011;53498;50.422;14.912;2022-12-15T09:40:51;64.80;;;29.33;;
66626;SDS011;53498;50.422;14.912;2022-12-15T09:43:21;60.65;;;28.27;;
66626;SDS011;53498;50.422;14.912;2022-12-15T09:45:50;67.10;;;28.48;;
66626;SDS011;53498;50.422;14.912;2022-12-15T09:48:21;65.10;;;27.92;;
66626;SDS011;53498;50.422;14.912;2022-12-15T09:50:50;58.63;;;27.48;;
66626;SDS011;53498;50.422;14.912;2022-12-15T09:53:18;66.07;;;30.17;;
66626;SDS011;53498;50.422;14.912;2022-12-15T09:55:50;53.40;;;25.17;;
66626;SDS011;53498;50.422;14.912;2022-12-15T10:09:49;76.57;;;32.70;;
66626;SDS011;53498;50.422;14.912;2022-12-15T10:12:19;86.60;;;34.78;;
66626;SDS011;53498;50.422;14.912;2022-12-15T10:20:16;76.38;;;32.85;;
66626;SDS011;53498;50.422;14.912;2022-12-15T10:22:48;65.85;;;30.00;;
66626;SDS011;53498;50.422;14.912;2022-12-15T10:30:56;82.93;;;34.25;;
66626;SDS011;53498;50.422;14.912;2022-12-15T10:33:25;83.78;;;34.72;;
66626;SDS011;53498;50.422;14.912;2022-12-15T10:35:54;85.50;;;35.10;;
66626;SDS011;53498;50.422;14.912;2022-12-15T10:40:49;79.90;;;34.65;;
66626;SDS011;53498;50.422;14.912;2022-12-15T10:43:24;88.45;;;36.72;;
66626;SDS011;53498;50.422;14.912;2022-12-15T10:46:08;91.60;;;39.13;;
66626;SDS011;53498;50.422;14.912;2022-12-15T10:48:52;87.35;;;35.20;;
66626;SDS011;53498;50.422;14.912;2022-12-15T10:51:28;90.57;;;35.13;;
66626;SDS011;53498;50.422;14.912;2022-12-15T10:59:27;77.45;;;35.70;;
66626;SDS011;53498;50.422;14.912;2022-12-15T11:02:17;66.97;;;31.85;;
66626;SDS011;53498;50.422;14.912;2022-12-15T11:04:43;70.47;;;33.05;;
66626;SDS011;53498;50.422;14.912;2022-12-15T11:07:19;71.47;;;32.88;;
66626;SDS011;53498;50.422;14.912;2022-12-15T11:09:45;71.03;;;28.58;;
66626;SDS011;53498;50.422;14.912;2022-12-15T11:12:20;72.70;;;33.72;;
66626;SDS011;53498;50.422;14.912;2022-12-15T11:15:49;83.38;;;34.55;;
66626;SDS011;53498;50.422;14.912;2022-12-15T11:20:45;71.47;;;33.28;;
66626;SDS011;53498;50.422;14.912;2022-12-15T11:23:20;76.22;;;33.20;;
66626;SDS011;53498;50.422;14.912;2022-12-15T11:26:04;70.93;;;32.00;;
66626;SDS011;53498;50.422;14.912;2022-12-15T11:28:50;71.47;;;34.58;;
66626;SDS011;53498;50.422;14.912;2022-12-15T11:31:36;81.88;;;33.22;;
66626;SDS011;53498;50.422;14.912;2022-12-15T11:34:10;71.20;;;31.88;;
66626;SDS011;53498;50.422;14.912;2022-12-15T11:54:37;66.88;;;30.85;;
66626;SDS011;53498;50.422;14.912;2022-12-15T12:00:17;69.65;;;28.98;;
66626;SDS011;53498;50.422;14.912;2022-12-15T12:02:59;68.15;;;30.17;;
66626;SDS011;53498;50.422;14.912;2022-12-15T12:10:42;52.42;;;26.10;;
66626;SDS011;53498;50.422;14.912;2022-12-15T12:18:27;69.57;;;29.42;;
66626;SDS011;53498;50.422;14.912;2022-12-15T12:21:05;85.03;;;32.75;;
66626;SDS011;53498;50.422;14.912;2022-12-15T12:23:37;73.43;;;30.73;;
66626;SDS011;53498;50.422;14.912;2022-12-15T12:31:55;71.13;;;31.23;;
66626;SDS011;53498;50.422;14.912;2022-12-15T12:37:20;51.53;;;24.60;;
66626;SDS011;53498;50.422;14.912;2022-12-15T12:39:52;64.70;;;26.98;;
66626;SDS011;53498;50.422;14.912;2022-12-15T12:42:24;52.10;;;21.50;;
66626;SDS011;53498;50.422;14.912;2022-12-15T12:45:05;70.55;;;28.60;;
66626;SDS011;53498;50.422;14.912;2022-12-15T12:47:34;65.55;;;25.92;;
66626;SDS011;53498;50.422;14.912;2022-12-15T12:53:01;52.25;;;23.83;;
66626;SDS011;53498;50.422;14.912;2022-12-15T12:57:56;60.80;;;26.38;;
66626;SDS011;53498;50.422;14.912;2022-12-15T13:00:26;63.75;;;27.55;;
66626;SDS011;53498;50.422;14.912;2022-12-15T13:05:38;63.58;;;26.55;;
66626;SDS011;53498;50.422;14.912;2022-12-15T13:10:37;72.65;;;31.25;;
66626;SDS011;53498;50.422;14.912;2022-12-15T13:15:57;58.63;;;27.07;;
66626;SDS011;53498;50.422;14.912;2022-12-15T13:24:30;78.10;;;28.98;;
66626;SDS011;53498;50.422;14.912;2022-12-15T13:27:33;66.13;;;27.83;;
66626;SDS011;53498;50.422;14.912;2022-12-15T13:32:40;60.22;;;29.70;;
66626;SDS011;53498;50.422;14.912;2022-12-15T13:37:47;67.45;;;28.27;;
66626;SDS011;53498;50.422;14.912;2022-12-15T13:40:28;64.60;;;28.98;;
66626;SDS011;53498;50.422;14.912;2022-12-15T13:45:47;92.05;;;33.30;;
66626;SDS011;53498;50.422;14.912;2022-12-15T13:48:31;72.25;;;30.98;;
66626;SDS011;53498;50.422;14.912;2022-12-15T13:50:59;61.10;;;28.33;;
66626;SDS011;53498;50.422;14.912;2022-12-15T13:53:47;66.65;;;28.92;;
66626;SDS011;53498;50.422;14.912;2022-12-15T13:56:22;83.10;;;35.47;;
66626;SDS011;53498;50.422;14.912;2022-12-15T13:58:55;88.72;;;34.30;;
66626;SDS011;53498;50.422;14.912;2022-12-15T14:01:28;71.65;;;31.38;;
66626;SDS011;53498;50.422;14.912;2022-12-15T14:03:56;70.63;;;32.17;;
66626;SDS011;53498;50.422;14.912;2022-12-15T14:06:21;66.88;;;27.98;;
66626;SDS011;53498;50.422;14.912;2022-12-15T14:08:47;70.07;;;30.50;;
66626;SDS011;53498;50.422;14.912;2022-12-15T14:11:19;64.47;;;28.95;;
66626;SDS011;53498;50.422;14.912;2022-12-15T14:13:54;75.85;;;30.15;;
66626;SDS011;53498;50.422;14.912;2022-12-15T14:16:23;71.75;;;30.25;;
66626;SDS011;53498;50.422;14.912;2022-12-15T14:19:13;77.88;;;31.80;;
66626;SDS011;53498;50.422;14.912;2022-12-15T14:21:39;73.10;;;33.42;;
66626;SDS011;53498;50.422;14.912;2022-12-15T14:24:21;74.70;;;31.95;;
66626;SDS011;53498;50.422;14.912;2022-12-15T14:26:52;74.20;;;30.90;;
66626;SDS011;53498;50.422;14.912;2022-12-15T14:29:17;75.38;;;29.67;;
66626;SDS011;53498;50.422;14.912;2022-12-15T14:31:43;70.88;;;29.52;;
66626;SDS011;53498;50.422;14.912;2022-12-15T14:34:21;66.63;;;28.77;;
66626;SDS011;53498;50.422;14.912;2022-12-15T14:36:50;69.07;;;31.02;;
66626;SDS011;53498;50.422;14.912;2022-12-15T14:39:22;71.72;;;31.75;;
66626;SDS011;53498;50.422;14.912;2022-12-15T14:41:52;75.63;;;32.38;;
66626;SDS011;53498;50.422;14.912;2022-12-15T14:44:26;71.32;;;32.33;;
66626;SDS011;53498;50.422;14.912;2022-12-15T14:46:55;65.80;;;31.40;;
66626;SDS011;53498;50.422;14.912;2022-12-15T14:49:26;72.10;;;30.98;;
66626;SDS011;53498;50.422;14.912;2022-12-15T14:51:59;70.10;;;28.30;;
66626;SDS011;53498;50.422;14.912;2022-12-15T14:54:37;70.18;;;30.05;;
66626;SDS011;53498;50.422;14.912;2022-12-15T14:57:14;52.88;;;26.17;;
66626;SDS011;53498;50.422;14.912;2022-12-15T14:59:45;72.47;;;28.13;;
66626;SDS011;53498;50.422;14.912;2022-12-15T15:02:17;80.15;;;32.10;;
66626;SDS011;53498;50.422;14.912;2022-12-15T15:07:27;63.03;;;30.05;;
66626;SDS011;53498;50.422;14.912;2022-12-15T15:09:58;71.15;;;30.92;;
66626;SDS011;53498;50.422;14.912;2022-12-15T15:12:43;68.22;;;29.40;;
66626;SDS011;53498;50.422;14.912;2022-12-15T15:15:13;61.97;;;27.98;;
66626;SDS011;53498;50.422;14.912;2022-12-15T15:17:44;63.03;;;29.42;;
66626;SDS011;53498;50.422;14.912;2022-12-15T15:22:44;69.10;;;29.27;;
66626;SDS011;53498;50.422;14.912;2022-12-15T15:25:25;65.25;;;27.83;;
66626;SDS011;53498;50.422;14.912;2022-12-15T15:28:01;69.70;;;29.95;;
66626;SDS011;53498;50.422;14.912;2022-12-15T15:30:40;69.60;;;29.77;;
66626;SDS011;53498;50.422;14.912;2022-12-15T15:33:07;66.93;;;28.17;;
66626;SDS011;53498;50.422;14.912;2022-12-15T15:35:33;83.90;;;33.92;;
66626;SDS011;53498;50.422;14.912;2022-12-15T15:40:56;93.55;;;39.03;;
66626;SDS011;53498;50.422;14.912;2022-12-15T15:43:23;84.10;;;36.53;;
66626;SDS011;53498;50.422;14.912;2022-12-15T15:45:54;79.13;;;34.80;;
66626;SDS011;53498;50.422;14.912;2022-12-15T15:48:30;82.50;;;35.13;;
66626;SDS011;53498;50.422;14.912;2022-12-15T15:51:00;86.72;;;34.75;;
66626;SDS011;53498;50.422;14.912;2022-12-15T15:53:27;87.20;;;41.00;;
66626;SDS011;53498;50.422;14.912;2022-12-15T15:55:55;93.32;;;39.53;;
66626;SDS011;53498;50.422;14.912;2022-12-15T15:58:21;96.70;;;39.13;;
66626;SDS011;53498;50.422;14.912;2022-12-15T16:00:47;89.28;;;36.75;;
66626;SDS011;53498;50.422;14.912;2022-12-15T16:03:12;93.25;;;32.60;;
66626;SDS011;53498;50.422;14.912;2022-12-15T16:05:38;85.43;;;35.33;;
66626;SDS011;53498;50.422;14.912;2022-12-15T16:08:04;77.05;;;32.47;;
66626;SDS011;53498;50.422;14.912;2022-12-15T16:10:31;77.88;;;33.55;;
66626;SDS011;53498;50.422;14.912;2022-12-15T16:12:57;88.60;;;35.78;;
66626;SDS011;53498;50.422;14.912;2022-12-15T16:15:29;81.47;;;34.17;;
66626;SDS011;53498;50.422;14.912;2022-12-15T16:17:58;84.75;;;33.50;;
66626;SDS011;53498;50.422;14.912;2022-12-15T16:20:25;73.47;;;33.78;;
66626;SDS011;53498;50.422;14.912;2022-12-15T16:22:53;78.95;;;33.15;;
66626;SDS011;53498;50.422;14.912;2022-12-15T16:25:28;71.75;;;31.10;;
66626;SDS011;53498;50.422;14.912;2022-12-15T16:27:54;82.68;;;33.63;;
66626;SDS011;53498;50.422;14.912;2022-12-15T16:30:21;78.00;;;35.40;;
66626;SDS011;53498;50.422;14.912;2022-12-15T16:32:48;89.05;;;35.50;;
66626;SDS011;53498;50.422;14.912;2022-12-15T16:35:15;77.55;;;32.85;;
66626;SDS011;53498;50.422;14.912;2022-12-15T16:37:42;81.90;;;35.63;;
66626;SDS011;53498;50.422;14.912;2022-12-15T16:40:12;70.03;;;31.13;;
66626;SDS011;53498;50.422;14.912;2022-12-15T16:42:39;78.47;;;32.28;;
66626;SDS011;53498;50.422;14.912;2022-12-15T16:45:15;84.10;;;35.75;;
66626;SDS011;53498;50.422;14.912;2022-12-15T16:47:42;75.10;;;30.98;;
66626;SDS011;53498;50.422;14.912;2022-12-15T16:50:16;80.25;;;35.20;;
66626;SDS011;53498;50.422;14.912;2022-12-15T16:52:45;75.10;;;31.70;;
66626;SDS011;53498;50.422;14.912;2022-12-15T16:55:18;76.55;;;31.25;;